createdAt,value
2019-02-20T00:01:03.930Z,6.70
2019-02-20T00:03:33.966Z,6.70
2019-02-20T00:06:02.560Z,6.70
2019-02-20T00:08:31.009Z,6.60
2019-02-20T00:10:59.456Z,6.60
2019-02-20T00:13:27.927Z,6.60
2019-02-20T00:15:56.373Z,6.50
2019-02-20T00:18:24.823Z,6.50
2019-02-20T00:20:55.678Z,6.50
2019-02-20T00:23:24.128Z,6.50
2019-02-20T00:25:52.591Z,6.60
2019-02-20T00:28:21.059Z,6.50
2019-02-20T00:30:49.511Z,6.50
2019-02-20T00:33:18.925Z,6.50
2019-02-20T00:35:48.944Z,6.50
2019-02-20T00:38:18.062Z,6.50
2019-02-20T00:40:46.576Z,6.50
2019-02-20T00:43:15.055Z,6.50
2019-02-20T00:46:03.204Z,6.50
2019-02-20T00:48:39.140Z,6.60
2019-02-20T00:51:10.854Z,6.50
2019-02-20T00:53:41.002Z,6.50
2019-02-20T00:56:10.830Z,6.50
2019-02-20T00:58:39.377Z,6.50
2019-02-20T01:01:08.211Z,6.60
2019-02-20T01:03:38.355Z,6.60
2019-02-20T01:06:06.825Z,6.60
2019-02-20T01:08:35.274Z,6.60
2019-02-20T01:11:04.492Z,6.60
2019-02-20T01:13:33.029Z,6.60
2019-02-20T01:16:01.497Z,6.60
2019-02-20T01:18:29.996Z,6.60
2019-02-20T01:20:58.493Z,6.60
2019-02-20T01:23:26.943Z,6.60
2019-02-20T01:25:55.400Z,6.60
2019-02-20T01:28:24.211Z,6.60
2019-02-20T01:30:54.234Z,6.60
2019-02-20T01:33:22.698Z,6.60
2019-02-20T01:35:51.227Z,6.60
2019-02-20T01:38:19.759Z,6.60
2019-02-20T01:40:48.237Z,6.60
2019-02-20T01:43:17.025Z,6.60
2019-02-20T01:45:46.614Z,6.60
2019-02-20T01:48:16.495Z,6.60
2019-02-20T01:50:45.057Z,6.50
2019-02-20T01:53:15.195Z,6.60
2019-02-20T01:55:43.780Z,6.50
2019-02-20T01:58:12.277Z,6.50
2019-02-20T02:00:40.862Z,6.50
2019-02-20T02:03:09.344Z,6.50
2019-02-20T02:05:37.835Z,6.50
2019-02-20T02:08:06.324Z,6.40
2019-02-20T02:10:36.142Z,6.40
2019-02-20T02:13:04.693Z,6.40
2019-02-20T02:15:33.181Z,6.30
2019-02-20T02:18:03.237Z,6.30
2019-02-20T02:20:31.828Z,6.20
2019-02-20T02:23:00.304Z,6.20
2019-02-20T02:25:28.849Z,6.10
2019-02-20T02:27:57.540Z,6.10
2019-02-20T02:30:27.392Z,6.10
2019-02-20T02:32:57.524Z,6.10
2019-02-20T02:35:25.973Z,6.00
2019-02-20T02:37:54.430Z,6.00
2019-02-20T02:40:23.005Z,6.00
2019-02-20T02:42:51.596Z,5.90
2019-02-20T02:45:21.964Z,6.00
2019-02-20T02:47:50.445Z,6.00
2019-02-20T02:50:20.505Z,6.00
2019-02-20T02:52:48.964Z,6.00
2019-02-20T02:55:17.443Z,6.00
2019-02-20T02:57:45.903Z,6.00
2019-02-20T03:00:15.524Z,6.00
2019-02-20T03:02:44.768Z,5.90
2019-02-20T03:05:13.232Z,5.90
2019-02-20T03:07:41.754Z,5.90
2019-02-20T03:10:11.429Z,5.90
2019-02-20T03:12:39.886Z,5.90
2019-02-20T03:15:10.379Z,5.90
2019-02-20T03:17:39.781Z,5.90
2019-02-20T03:20:09.465Z,5.90
2019-02-20T03:22:37.933Z,5.90
2019-02-20T03:25:07.179Z,5.90
2019-02-20T03:27:36.305Z,5.90
2019-02-20T03:30:07.046Z,5.90
2019-02-20T03:32:35.623Z,5.90
2019-02-20T03:35:06.433Z,6.00
2019-02-20T03:37:34.962Z,6.00
2019-02-20T03:40:04.287Z,6.00
2019-02-20T03:42:32.751Z,6.00
2019-02-20T03:45:01.275Z,6.00
2019-02-20T03:47:29.997Z,6.00
2019-02-20T03:49:58.539Z,6.00
2019-02-20T03:52:27.031Z,6.00
2019-02-20T03:54:55.645Z,6.00
2019-02-20T03:57:24.285Z,6.10
2019-02-20T03:59:52.885Z,6.10
2019-02-20T04:02:22.559Z,6.10
2019-02-20T04:04:51.402Z,6.10
2019-02-20T04:07:20.090Z,6.10
2019-02-20T04:09:50.380Z,6.00
2019-02-20T04:12:18.927Z,6.00
2019-02-20T04:14:48.726Z,6.00
2019-02-20T04:17:18.421Z,6.00
2019-02-20T04:19:48.523Z,6.00
2019-02-20T04:22:18.427Z,5.90
2019-02-20T04:24:46.973Z,5.90
2019-02-20T04:27:16.652Z,5.90
2019-02-20T04:29:45.400Z,5.80
2019-02-20T04:32:13.958Z,5.80
2019-02-20T04:34:43.349Z,5.80
2019-02-20T04:37:11.900Z,5.80
2019-02-20T04:39:40.392Z,5.80
2019-02-20T04:42:08.915Z,5.70
2019-02-20T04:44:37.385Z,5.70
2019-02-20T04:47:05.854Z,5.70
2019-02-20T04:49:35.949Z,5.70
2019-02-20T04:52:04.898Z,5.70
2019-02-20T04:54:33.421Z,5.70
2019-02-20T04:57:01.916Z,5.70
2019-02-20T04:59:35.389Z,5.70
2019-02-20T05:02:03.624Z,5.70
2019-02-20T05:04:33.868Z,5.80
2019-02-20T05:07:02.611Z,5.80
2019-02-20T05:09:32.395Z,5.80
2019-02-20T05:12:00.888Z,5.90
2019-02-20T05:14:29.381Z,5.90
2019-02-20T05:16:59.597Z,5.90
2019-02-20T05:19:28.791Z,5.90
2019-02-20T05:21:58.907Z,5.90
2019-02-20T05:24:27.448Z,6.00
2019-02-20T05:26:56.579Z,6.00
2019-02-20T05:29:25.102Z,6.00
2019-02-20T05:31:53.566Z,6.00
2019-02-20T05:34:23.807Z,6.00
2019-02-20T05:36:54.311Z,6.00
2019-02-20T05:39:22.788Z,6.00
2019-02-20T05:41:53.598Z,6.00
2019-02-20T05:44:22.063Z,6.00
2019-02-20T05:46:53.044Z,6.00
2019-02-20T05:49:24.455Z,6.00
2019-02-20T05:51:52.913Z,5.90
2019-02-20T05:54:22.221Z,5.90
2019-02-20T05:56:50.702Z,5.90
2019-02-20T05:59:19.721Z,5.90
2019-02-20T06:01:48.316Z,5.90
2019-02-20T06:04:18.519Z,5.90
2019-02-20T06:06:49.375Z,5.90
2019-02-20T06:09:17.889Z,5.90
2019-02-20T06:11:47.376Z,5.90
2019-02-20T06:14:15.837Z,5.90
2019-02-20T06:16:44.355Z,5.90
2019-02-20T06:19:12.950Z,5.90
2019-02-20T06:21:41.433Z,5.90
2019-02-20T06:24:09.913Z,6.00
2019-02-20T06:26:38.410Z,6.00
2019-02-20T06:29:07.424Z,6.00
2019-02-20T06:31:36.546Z,6.00
2019-02-20T06:34:05.291Z,6.00
2019-02-20T06:36:33.732Z,6.00
2019-02-20T06:39:02.365Z,6.00
2019-02-20T06:41:38.619Z,6.00
2019-02-20T06:44:01.402Z,6.00
2019-02-20T06:46:29.915Z,6.00
2019-02-20T06:48:58.373Z,6.10
2019-02-20T06:51:26.859Z,6.10
2019-02-20T06:53:55.363Z,6.10
2019-02-20T06:56:23.872Z,6.10
2019-02-20T06:58:52.373Z,6.10
2019-02-20T07:01:20.914Z,6.10
2019-02-20T07:03:49.435Z,6.10
2019-02-20T07:06:43.791Z,6.10
2019-02-20T07:09:18.076Z,6.10
2019-02-20T07:11:52.260Z,6.20
2019-02-20T07:14:26.429Z,6.20
2019-02-20T07:17:31.287Z,6.20
2019-02-20T07:20:14.911Z,6.20
2019-02-20T07:23:16.794Z,6.20
2019-02-20T07:26:23.319Z,6.30
2019-02-20T07:29:18.812Z,6.30
2019-02-20T07:31:50.028Z,6.30
2019-02-20T07:34:18.506Z,6.30
2019-02-20T07:36:46.965Z,6.30
2019-02-20T07:39:15.491Z,6.30
2019-02-20T07:41:43.970Z,6.40
2019-02-20T07:44:12.443Z,6.40
2019-02-20T07:46:42.192Z,6.40
2019-02-20T07:49:10.754Z,6.50
2019-02-20T07:51:39.205Z,6.50
2019-02-20T07:54:07.697Z,6.60
2019-02-20T07:56:36.153Z,6.70
2019-02-20T07:59:04.939Z,6.70
2019-02-20T08:01:36.659Z,6.80
2019-02-20T08:04:05.183Z,6.90
2019-02-20T08:06:34.583Z,6.90
2019-02-20T08:09:04.724Z,6.90
2019-02-20T08:11:33.176Z,7.00
2019-02-20T08:14:01.640Z,7.00
2019-02-20T08:16:30.188Z,7.00
2019-02-20T08:19:03.594Z,7.00
2019-02-20T08:21:31.332Z,7.10
2019-02-20T08:24:00.768Z,7.10
2019-02-20T08:26:29.250Z,7.20
2019-02-20T08:28:57.745Z,7.20
2019-02-20T08:31:26.229Z,7.20
2019-02-20T08:33:54.674Z,7.20
2019-02-20T08:36:23.397Z,7.30
2019-02-20T08:38:51.898Z,7.40
2019-02-20T08:41:20.406Z,7.40
2019-02-20T08:43:48.866Z,7.60
2019-02-20T08:46:17.378Z,7.70
2019-02-20T08:48:46.106Z,7.70
2019-02-20T08:51:15.322Z,7.80
2019-02-20T08:53:43.917Z,7.80
2019-02-20T08:56:12.424Z,7.90
2019-02-20T08:58:41.039Z,7.90
2019-02-20T09:01:09.526Z,8.00
2019-02-20T09:03:37.988Z,8.10
2019-02-20T09:06:06.507Z,8.10
2019-02-20T09:08:35.281Z,8.20
2019-02-20T09:11:04.712Z,8.30
2019-02-20T09:13:34.375Z,8.40
2019-02-20T09:16:02.920Z,8.40
2019-02-20T09:18:31.445Z,8.50
2019-02-20T09:20:59.904Z,8.60
2019-02-20T09:23:28.383Z,8.60
2019-02-20T09:25:56.856Z,8.60
2019-02-20T09:28:25.567Z,8.60
2019-02-20T09:30:54.046Z,8.60
2019-02-20T09:33:22.575Z,8.70
2019-02-20T09:35:51.012Z,8.70
2019-02-20T09:38:19.729Z,8.80
2019-02-20T09:40:48.184Z,8.80
2019-02-20T09:43:16.648Z,8.90
2019-02-20T09:45:46.373Z,9.00
2019-02-20T09:48:15.070Z,9.00
2019-02-20T09:50:43.992Z,9.10
2019-02-20T09:53:12.473Z,9.20
2019-02-20T09:55:51.359Z,9.30
2019-02-20T09:58:13.944Z,9.30
2019-02-20T10:00:42.495Z,9.30
2019-02-20T10:03:10.935Z,9.40
2019-02-20T10:05:39.458Z,9.40
2019-02-20T10:08:07.975Z,9.40
2019-02-20T10:10:36.491Z,9.50
2019-02-20T10:13:05.326Z,9.60
2019-02-20T10:15:34.743Z,9.70
2019-02-20T10:18:03.341Z,9.70
2019-02-20T10:20:31.879Z,9.70
2019-02-20T10:23:00.374Z,9.70
2019-02-20T10:25:30.537Z,9.70
2019-02-20T10:27:59.072Z,9.70
2019-02-20T10:30:28.656Z,9.80
2019-02-20T10:32:57.121Z,9.80
2019-02-20T10:35:25.598Z,9.90
2019-02-20T10:37:54.090Z,9.90
2019-02-20T10:40:24.191Z,10.10
2019-02-20T10:42:52.979Z,10.20
2019-02-20T10:45:21.603Z,10.20
2019-02-20T10:47:50.271Z,10.30
2019-02-20T10:50:18.873Z,10.30
2019-02-20T10:52:47.576Z,10.40
2019-02-20T10:55:17.408Z,10.50
2019-02-20T10:57:45.934Z,10.60
2019-02-20T11:00:24.545Z,10.70
2019-02-20T11:02:53.206Z,10.90
2019-02-20T11:05:22.338Z,11.00
2019-02-20T11:07:52.408Z,11.10
2019-02-20T11:10:20.866Z,11.10
2019-02-20T11:12:50.213Z,11.20
2019-02-20T11:15:18.776Z,11.20
2019-02-20T11:17:47.324Z,11.40
2019-02-20T11:20:15.863Z,11.50
2019-02-20T11:22:44.414Z,11.60
2019-02-20T11:25:13.718Z,11.70
2019-02-20T11:27:42.164Z,11.70
2019-02-20T11:30:16.919Z,11.80
2019-02-20T11:32:45.445Z,11.80
2019-02-20T11:35:16.134Z,11.90
2019-02-20T11:37:44.670Z,12.00
2019-02-20T11:40:13.211Z,12.00
2019-02-20T11:42:41.692Z,12.10
2019-02-20T11:45:12.600Z,12.20
2019-02-20T11:47:41.188Z,12.30
2019-02-20T11:50:10.916Z,12.30
2019-02-20T11:52:39.824Z,12.30
2019-02-20T11:55:13.910Z,12.30
2019-02-20T11:57:43.364Z,12.40
2019-02-20T12:00:21.410Z,12.40
2019-02-20T12:02:49.907Z,12.30
2019-02-20T12:05:18.602Z,12.30
2019-02-20T12:07:47.067Z,12.30
2019-02-20T12:10:18.241Z,12.20
2019-02-20T12:12:46.939Z,12.30
2019-02-20T12:15:15.483Z,12.40
2019-02-20T12:17:44.095Z,12.40
2019-02-20T12:20:12.628Z,12.40
2019-02-20T12:22:41.083Z,12.50
2019-02-20T12:25:13.184Z,12.40
2019-02-20T12:27:41.812Z,12.40
2019-02-20T12:30:12.059Z,12.40
2019-02-20T12:32:40.779Z,12.30
2019-02-20T12:35:09.764Z,12.30
2019-02-20T12:37:38.219Z,12.30
2019-02-20T12:40:11.436Z,12.20
2019-02-20T12:42:41.848Z,12.10
2019-02-20T12:45:10.897Z,12.00
2019-02-20T12:47:39.461Z,11.90
2019-02-20T12:50:10.943Z,11.90
2019-02-20T12:52:39.817Z,11.90
2019-02-20T12:55:09.343Z,12.00
2019-02-20T12:57:39.310Z,12.00
2019-02-20T13:00:16.581Z,12.10
2019-02-20T13:02:45.174Z,12.20
2019-02-20T13:05:13.699Z,12.20
2019-02-20T13:07:42.155Z,12.30
2019-02-20T13:10:11.641Z,12.30
2019-02-20T13:12:40.260Z,12.30
2019-02-20T13:15:10.824Z,12.20
2019-02-20T13:17:39.353Z,12.20
2019-02-20T13:20:10.248Z,12.20
2019-02-20T13:22:40.323Z,12.20
2019-02-20T13:25:10.104Z,12.30
2019-02-20T13:27:43.601Z,12.30
2019-02-20T13:30:14.744Z,12.30
2019-02-20T13:32:44.649Z,12.30
2019-02-20T13:35:14.420Z,12.30
2019-02-20T13:37:44.579Z,12.30
2019-02-20T13:40:13.192Z,12.40
2019-02-20T13:42:43.275Z,12.50
2019-02-20T13:45:11.948Z,12.60
2019-02-20T13:47:40.579Z,12.80
2019-02-20T13:50:11.860Z,12.80
2019-02-20T13:52:40.802Z,12.80
2019-02-20T13:55:09.502Z,12.90
2019-02-20T13:57:48.135Z,13.00
2019-02-20T14:00:16.824Z,13.20
2019-02-20T14:02:46.828Z,13.30
2019-02-20T14:05:15.463Z,13.40
2019-02-20T14:07:45.941Z,13.40
2019-02-20T14:10:16.633Z,13.40
2019-02-20T14:12:45.233Z,13.40
2019-02-20T14:15:13.842Z,13.40
2019-02-20T14:17:43.871Z,13.40
2019-02-20T14:20:12.977Z,13.50
2019-02-20T14:22:42.484Z,13.40
2019-02-20T14:25:12.411Z,13.40
2019-02-20T14:30:29.856Z,13.50
2019-02-20T14:32:58.314Z,13.50
2019-02-20T14:35:28.458Z,13.60
2019-02-20T14:37:59.059Z,13.60
2019-02-20T14:40:28.841Z,13.60
2019-02-20T14:42:57.331Z,13.40
2019-02-20T14:45:25.960Z,13.30
2019-02-20T14:47:54.660Z,13.20
2019-02-20T14:50:23.419Z,13.20
2019-02-20T14:52:51.998Z,13.10
2019-02-20T14:55:20.455Z,13.10
2019-02-20T14:58:04.174Z,13.10
2019-02-20T15:00:32.709Z,13.20
2019-02-20T15:03:03.792Z,13.20
2019-02-20T15:05:32.435Z,13.10
2019-02-20T15:08:02.156Z,13.10
2019-02-20T15:10:31.870Z,13.10
2019-02-20T15:13:00.352Z,13.20
2019-02-20T15:15:29.273Z,13.20
2019-02-20T15:17:58.294Z,13.50
2019-02-20T15:20:27.796Z,13.70
2019-02-20T15:22:58.429Z,13.80
2019-02-20T15:25:27.095Z,13.80
2019-02-20T15:27:55.776Z,13.90
2019-02-20T15:30:24.339Z,13.70
2019-02-20T15:32:52.882Z,13.50
2019-02-20T15:35:21.819Z,13.30
2019-02-20T15:37:51.653Z,13.20
2019-02-20T15:40:22.339Z,13.00
2019-02-20T15:42:52.408Z,13.00
2019-02-20T15:45:20.951Z,13.10
2019-02-20T15:47:54.431Z,13.30
2019-02-20T15:50:22.102Z,13.30
2019-02-20T15:52:50.593Z,13.30
2019-02-20T15:55:19.799Z,13.30
2019-02-20T15:57:48.303Z,13.20
2019-02-20T16:00:20.129Z,13.20
2019-02-20T16:02:50.838Z,13.20
2019-02-20T16:05:19.536Z,13.20
2019-02-20T16:07:48.249Z,13.10
2019-02-20T16:10:17.052Z,13.00
2019-02-20T16:12:45.643Z,12.90
2019-02-20T16:15:14.827Z,12.90
2019-02-20T16:17:44.811Z,12.80
2019-02-20T16:20:14.092Z,12.80
2019-02-20T16:22:42.630Z,12.70
2019-02-20T16:25:14.412Z,12.60
2019-02-20T16:27:47.190Z,12.50
2019-02-20T16:30:15.149Z,12.30
2019-02-20T16:32:43.706Z,12.30
2019-02-20T16:35:12.846Z,12.10
2019-02-20T16:37:44.681Z,12.10
2019-02-20T16:40:15.053Z,12.10
2019-02-20T16:42:43.575Z,12.00
2019-02-20T16:45:25.352Z,12.00
2019-02-20T16:47:54.360Z,11.90
2019-02-20T16:50:23.026Z,11.80
2019-02-20T16:52:51.656Z,11.70
2019-02-20T16:55:22.582Z,11.60
2019-02-20T16:57:56.751Z,11.50
2019-02-20T17:00:22.675Z,11.50
2019-02-20T17:02:51.704Z,11.30
2019-02-20T17:05:20.308Z,11.30
2019-02-20T17:07:49.019Z,11.20
2019-02-20T17:10:17.646Z,11.10
2019-02-20T17:12:46.293Z,11.10
2019-02-20T17:15:16.924Z,11.00
2019-02-20T17:17:45.622Z,11.00
2019-02-20T17:20:35.009Z,10.90
2019-02-20T17:23:05.146Z,10.90
2019-02-20T17:25:33.715Z,10.90
2019-02-20T17:28:05.747Z,10.80
2019-02-20T17:30:32.713Z,10.80
2019-02-20T17:33:01.965Z,10.80
2019-02-20T17:35:30.758Z,10.80
2019-02-20T17:37:59.385Z,10.70
2019-02-20T17:40:28.691Z,10.70
2019-02-20T17:42:57.224Z,10.70
2019-02-20T17:45:26.403Z,10.70
2019-02-20T17:47:55.009Z,10.70
2019-02-20T17:50:25.308Z,10.70
2019-02-20T17:52:53.919Z,10.70
2019-02-20T17:55:22.437Z,10.70
2019-02-20T17:57:51.116Z,10.70
2019-02-20T18:00:21.848Z,10.70
2019-02-20T18:02:50.353Z,10.70
2019-02-20T18:05:18.910Z,10.70
2019-02-20T18:07:51.403Z,10.70
2019-02-20T18:10:17.667Z,10.70
2019-02-20T18:12:46.171Z,10.60
2019-02-20T18:15:15.084Z,10.60
2019-02-20T18:17:43.817Z,10.50
2019-02-20T18:20:12.670Z,10.50
2019-02-20T18:22:41.210Z,10.40
2019-02-20T18:25:12.832Z,10.40
2019-02-20T18:27:41.447Z,10.30
2019-02-20T18:30:12.523Z,10.30
2019-02-20T18:32:42.322Z,10.20
2019-02-20T18:35:12.412Z,10.20
2019-02-20T18:37:40.978Z,10.10
2019-02-20T18:40:12.222Z,10.00
2019-02-20T18:42:40.692Z,10.00
2019-02-20T18:45:12.286Z,10.00
2019-02-20T18:47:40.805Z,9.90
2019-02-20T18:50:12.259Z,9.80
2019-02-20T18:52:40.804Z,9.80
2019-02-20T18:55:12.386Z,9.80
2019-02-20T18:57:41.941Z,9.70
2019-02-20T19:00:16.158Z,9.60
2019-02-20T19:02:44.784Z,9.60
2019-02-20T19:05:13.379Z,9.60
2019-02-20T19:07:43.494Z,9.50
2019-02-20T19:10:35.698Z,9.40
2019-02-20T19:13:24.831Z,9.30
2019-02-20T19:16:18.304Z,9.30
2019-02-20T19:19:03.215Z,9.20
2019-02-20T19:21:50.198Z,9.10
2019-02-20T19:24:30.835Z,9.10
2019-02-20T19:27:09.243Z,9.00
2019-02-20T19:29:44.677Z,9.00
2019-02-20T19:32:28.481Z,9.00
2019-02-20T19:34:57.794Z,8.90
2019-02-20T19:37:38.119Z,8.90
2019-02-20T19:40:32.253Z,8.80
2019-02-20T19:43:30.563Z,8.80
2019-02-20T19:46:18.497Z,8.70
2019-02-20T19:48:56.210Z,8.60
2019-02-20T19:51:39.224Z,8.50
2019-02-20T19:54:22.696Z,8.50
2019-02-20T19:56:56.986Z,8.50
2019-02-20T19:59:40.827Z,8.40
2019-02-20T20:02:28.465Z,8.40
2019-02-20T20:05:16.280Z,8.40
2019-02-20T20:07:56.710Z,8.40
2019-02-20T20:10:37.197Z,8.30
2019-02-20T20:13:25.496Z,8.30
2019-02-20T20:16:18.161Z,8.30
2019-02-20T20:18:56.084Z,8.30
2019-02-20T20:21:33.761Z,8.30
2019-02-20T20:24:32.521Z,8.20
2019-02-20T20:27:35.899Z,8.20
2019-02-20T20:30:16.955Z,8.20
2019-02-20T20:32:55.221Z,8.20
2019-02-20T20:35:59.816Z,8.20
2019-02-20T20:38:45.995Z,8.20
2019-02-20T20:41:21.179Z,8.20
2019-02-20T20:44:27.752Z,8.10
2019-02-20T20:47:05.107Z,8.10
2019-02-20T20:50:02.365Z,8.10
2019-02-20T20:52:33.924Z,8.00
2019-02-20T20:55:20.227Z,8.00
2019-02-20T20:58:11.395Z,8.00
2019-02-20T21:01:02.607Z,8.00
2019-02-20T21:03:34.156Z,8.00
2019-02-20T21:06:05.788Z,8.00
2019-02-20T21:08:37.342Z,8.00
2019-02-20T21:11:17.689Z,7.90
2019-02-20T21:13:57.787Z,7.90
2019-02-20T21:16:53.925Z,7.90
2019-02-20T21:19:57.333Z,7.80
2019-02-20T21:22:55.699Z,7.80
2019-02-20T21:25:53.082Z,7.80
2019-02-20T21:28:52.788Z,7.70
2019-02-20T21:31:40.803Z,7.70
2019-02-20T21:34:29.902Z,7.70
2019-02-20T21:37:06.821Z,7.70
2019-02-20T21:39:38.354Z,7.70
2019-02-20T21:42:16.047Z,7.70
2019-02-20T21:44:53.455Z,7.70
2019-02-20T21:47:39.330Z,7.70
2019-02-20T21:50:16.146Z,7.70
2019-02-20T21:52:53.875Z,7.70
2019-02-20T21:55:58.907Z,7.60
2019-02-20T21:58:33.396Z,7.60
2019-02-20T22:01:22.825Z,7.60
2019-02-20T22:03:57.264Z,7.50
2019-02-20T22:06:49.717Z,7.50
2019-02-20T22:09:37.515Z,7.50
2019-02-20T22:12:50.593Z,7.50
2019-02-20T22:15:39.620Z,7.40
2019-02-20T22:18:20.467Z,7.40
2019-02-20T22:21:13.353Z,7.40
2019-02-20T22:23:50.903Z,7.30
2019-02-20T22:26:46.647Z,7.30
2019-02-20T22:29:21.297Z,7.30
2019-02-20T22:32:07.917Z,7.30
2019-02-20T22:34:48.304Z,7.20
2019-02-20T22:37:31.911Z,7.20
2019-02-20T22:40:28.958Z,7.20
2019-02-20T22:43:08.676Z,7.20
2019-02-20T22:45:55.086Z,7.20
2019-02-20T22:48:35.708Z,7.10
2019-02-20T22:51:22.469Z,7.10
2019-02-20T22:54:10.826Z,7.00
2019-02-20T22:57:09.169Z,7.10
2019-02-20T23:00:01.374Z,7.00
2019-02-20T23:02:48.688Z,7.00
2019-02-20T23:05:39.795Z,7.00
2019-02-20T23:08:20.561Z,7.00
2019-02-20T23:11:14.264Z,7.00
2019-02-20T23:13:45.859Z,7.00
2019-02-20T23:16:14.306Z,6.90
2019-02-20T23:18:42.946Z,6.90
2019-02-20T23:21:11.426Z,6.90
2019-02-20T23:23:39.875Z,6.90
2019-02-20T23:26:08.331Z,6.80
2019-02-20T23:28:36.904Z,6.80
2019-02-20T23:31:05.371Z,6.80
2019-02-20T23:33:34.413Z,6.80
2019-02-20T23:36:02.875Z,6.80
2019-02-20T23:38:31.503Z,6.80
2019-02-20T23:40:59.977Z,6.80
2019-02-20T23:43:28.421Z,6.80
2019-02-20T23:45:56.889Z,6.70
2019-02-20T23:48:25.364Z,6.70
2019-02-20T23:50:53.877Z,6.70
2019-02-20T23:53:22.341Z,6.80
2019-02-20T23:55:50.811Z,6.80
2019-02-20T23:58:19.267Z,6.80
